createdAt,value
2018-08-20T00:00:57.698Z,59.85
2018-08-20T00:02:01.871Z,59.63
2018-08-20T00:03:06.223Z,60.35
2018-08-20T00:04:10.834Z,59.81
2018-08-20T00:05:15.083Z,59.73
2018-08-20T00:06:19.915Z,59.55
2018-08-20T00:07:24.107Z,59.71
2018-08-20T00:08:28.306Z,59.52
2018-08-20T00:09:38.138Z,59.41
2018-08-20T00:10:42.312Z,59.88
2018-08-20T00:11:46.940Z,59.75
2018-08-20T00:12:51.117Z,59.39
2018-08-20T00:13:55.299Z,59.57
2018-08-20T00:14:59.790Z,60.07
2018-08-20T00:16:03.926Z,60.25
2018-08-20T00:17:08.314Z,59.79
2018-08-20T00:18:17.763Z,59.67
2018-08-20T00:19:21.944Z,59.84
2018-08-20T00:20:26.090Z,59.83
2018-08-20T00:21:30.403Z,59.87
2018-08-20T00:22:34.573Z,60.64
2018-08-20T00:23:38.770Z,60.73
2018-08-20T00:24:42.978Z,60.09
2018-08-20T00:25:47.167Z,60.63
2018-08-20T00:26:51.504Z,60.52
2018-08-20T00:27:55.678Z,60.87
2018-08-20T00:28:59.842Z,60.65
2018-08-20T00:30:04.391Z,60.65
2018-08-20T00:31:08.758Z,60.78
2018-08-20T00:32:13.012Z,61.36
2018-08-20T00:33:17.229Z,60.90
2018-08-20T00:34:21.463Z,61.49
2018-08-20T00:35:25.671Z,61.58
2018-08-20T00:36:29.834Z,61.52
2018-08-20T00:37:33.979Z,61.12
2018-08-20T00:38:38.244Z,61.10
2018-08-20T00:39:42.461Z,61.37
2018-08-20T00:40:47.005Z,61.54
2018-08-20T00:41:51.251Z,61.51
2018-08-20T00:42:55.473Z,61.67
2018-08-20T00:43:59.612Z,61.75
2018-08-20T00:45:05.142Z,62.32
2018-08-20T00:46:09.351Z,61.76
2018-08-20T00:47:13.529Z,62.56
2018-08-20T00:48:17.705Z,62.06
2018-08-20T00:49:22.054Z,62.26
2018-08-20T00:50:26.207Z,62.24
2018-08-20T00:51:30.550Z,62.46
2018-08-20T00:52:34.915Z,62.11
2018-08-20T00:53:39.184Z,63.18
2018-08-20T00:54:43.406Z,62.54
2018-08-20T00:55:47.520Z,62.56
2018-08-20T00:56:51.702Z,63.35
2018-08-20T00:57:55.907Z,63.26
2018-08-20T00:59:00.463Z,63.42
2018-08-20T01:00:05.145Z,62.77
2018-08-20T01:01:09.327Z,63.34
2018-08-20T01:02:13.578Z,63.09
2018-08-20T01:03:17.958Z,63.01
2018-08-20T01:04:22.138Z,63.88
2018-08-20T01:05:26.295Z,63.43
2018-08-20T01:06:30.620Z,63.46
2018-08-20T01:07:34.815Z,63.51
2018-08-20T01:08:38.970Z,63.62
2018-08-20T01:09:43.151Z,64.14
2018-08-20T01:10:47.366Z,63.99
2018-08-20T01:11:51.686Z,64.20
2018-08-20T01:12:55.879Z,63.50
2018-08-20T01:14:00.113Z,64.14
2018-08-20T01:15:04.329Z,64.29
2018-08-20T01:16:08.539Z,63.85
2018-08-20T01:17:12.699Z,64.32
2018-08-20T01:18:17.062Z,63.82
2018-08-20T01:19:21.235Z,64.54
2018-08-20T01:20:25.763Z,63.86
2018-08-20T01:21:29.952Z,64.59
2018-08-20T01:22:34.090Z,63.82
2018-08-20T01:23:38.342Z,64.12
2018-08-20T01:24:42.478Z,64.39
2018-08-20T01:25:46.683Z,64.49
2018-08-20T01:26:50.857Z,64.32
2018-08-20T01:27:55.182Z,64.52
2018-08-20T01:28:59.427Z,63.85
2018-08-20T01:30:03.826Z,64.11
2018-08-20T01:31:08.003Z,64.68
2018-08-20T01:32:12.371Z,64.01
2018-08-20T01:33:17.042Z,64.76
2018-08-20T01:34:21.421Z,64.07
2018-08-20T01:35:27.529Z,64.06
2018-08-20T01:36:31.841Z,64.00
2018-08-20T01:37:36.182Z,64.74
2018-08-20T01:38:40.347Z,64.04
2018-08-20T01:39:44.893Z,64.07
2018-08-20T01:40:49.057Z,64.34
2018-08-20T01:41:53.227Z,64.39
2018-08-20T01:42:57.412Z,64.20
2018-08-20T01:44:01.543Z,64.50
2018-08-20T01:45:06.130Z,64.31
2018-08-20T01:46:10.450Z,64.33
2018-08-20T01:47:14.819Z,64.64
2018-08-20T01:48:19.018Z,64.93
2018-08-20T01:49:23.166Z,64.70
2018-08-20T01:50:27.359Z,65.17
2018-08-20T01:51:31.525Z,65.43
2018-08-20T01:52:35.696Z,65.42
2018-08-20T01:53:40.094Z,64.80
2018-08-20T01:54:44.284Z,65.17
2018-08-20T01:55:48.725Z,65.60
2018-08-20T01:56:52.871Z,65.09
2018-08-20T01:57:57.128Z,65.74
2018-08-20T01:59:01.309Z,65.19
2018-08-20T02:00:06.055Z,65.36
2018-08-20T02:01:10.310Z,65.70
2018-08-20T02:02:14.498Z,65.61
2018-08-20T02:03:18.748Z,65.82
2018-08-20T02:04:22.889Z,65.25
2018-08-20T02:05:27.184Z,65.38
2018-08-20T02:06:31.395Z,65.99
2018-08-20T02:07:35.611Z,66.01
2018-08-20T02:08:39.806Z,65.50
2018-08-20T02:09:43.993Z,66.00
2018-08-20T02:10:48.198Z,65.58
2018-08-20T02:11:52.395Z,65.52
2018-08-20T02:12:56.609Z,66.07
2018-08-20T02:14:00.795Z,65.66
2018-08-20T02:15:05.471Z,65.81
2018-08-20T02:16:10.217Z,65.31
2018-08-20T02:17:14.630Z,65.88
2018-08-20T02:18:19.150Z,66.00
2018-08-20T02:19:23.291Z,65.91
2018-08-20T02:20:27.462Z,65.81
2018-08-20T02:21:31.607Z,65.96
2018-08-20T02:22:35.803Z,65.15
2018-08-20T02:23:39.974Z,65.38
2018-08-20T02:24:44.151Z,65.99
2018-08-20T02:25:48.317Z,66.06
2018-08-20T02:26:52.508Z,65.36
2018-08-20T02:27:56.731Z,66.08
2018-08-20T02:29:00.932Z,65.67
2018-08-20T02:30:05.746Z,65.45
2018-08-20T02:31:09.921Z,65.85
2018-08-20T02:32:14.063Z,65.73
2018-08-20T02:33:18.240Z,66.16
2018-08-20T02:34:22.484Z,65.55
2018-08-20T02:35:26.590Z,66.07
2018-08-20T02:36:30.840Z,65.68
2018-08-20T02:37:40.083Z,65.72
2018-08-20T02:38:44.316Z,66.48
2018-08-20T02:39:48.489Z,66.09
2018-08-20T02:40:52.806Z,66.30
2018-08-20T02:41:57.092Z,66.08
2018-08-20T02:43:01.263Z,66.86
2018-08-20T02:44:05.488Z,67.00
2018-08-20T02:45:11.999Z,67.08
2018-08-20T02:46:16.848Z,67.06
2018-08-20T02:47:21.020Z,67.28
2018-08-20T02:48:25.229Z,66.96
2018-08-20T02:49:29.402Z,66.87
2018-08-20T02:50:33.599Z,66.96
2018-08-20T02:51:37.805Z,67.01
2018-08-20T02:52:42.891Z,67.06
2018-08-20T02:53:47.138Z,67.48
2018-08-20T02:54:51.494Z,67.02
2018-08-20T02:55:55.686Z,66.94
2018-08-20T02:56:59.870Z,67.20
2018-08-20T02:58:04.073Z,67.31
2018-08-20T02:59:08.265Z,66.81
2018-08-20T03:00:13.959Z,66.89
2018-08-20T03:01:18.131Z,67.06
2018-08-20T03:02:22.327Z,67.51
2018-08-20T03:03:26.520Z,67.26
2018-08-20T03:04:30.742Z,66.79
2018-08-20T03:05:35.072Z,66.72
2018-08-20T03:06:39.610Z,66.83
2018-08-20T03:07:43.958Z,67.12
2018-08-20T03:08:48.126Z,67.15
2018-08-20T03:09:52.371Z,66.75
2018-08-20T03:10:56.560Z,66.90
2018-08-20T03:12:00.778Z,66.30
2018-08-20T03:13:05.156Z,66.07
2018-08-20T03:14:09.663Z,66.10
2018-08-20T03:15:13.836Z,66.31
2018-08-20T03:16:18.066Z,66.47
2018-08-20T03:17:22.214Z,66.70
2018-08-20T03:18:26.661Z,66.61
2018-08-20T03:19:30.825Z,66.64
2018-08-20T03:20:35.014Z,66.59
2018-08-20T03:21:39.397Z,65.90
2018-08-20T03:22:43.571Z,66.05
2018-08-20T03:23:47.788Z,65.81
2018-08-20T03:24:51.967Z,65.90
2018-08-20T03:25:56.159Z,66.41
2018-08-20T03:27:00.371Z,66.23
2018-08-20T03:28:04.551Z,66.03
2018-08-20T03:29:08.763Z,65.77
2018-08-20T03:30:12.970Z,65.98
2018-08-20T03:31:17.186Z,65.77
2018-08-20T03:32:21.389Z,65.77
2018-08-20T03:33:25.595Z,65.97
2018-08-20T03:34:29.801Z,66.23
2018-08-20T03:35:34.231Z,66.45
2018-08-20T03:36:38.417Z,66.50
2018-08-20T03:37:42.726Z,66.09
2018-08-20T03:38:46.928Z,66.58
2018-08-20T03:39:51.136Z,66.31
2018-08-20T03:40:55.322Z,66.00
2018-08-20T03:41:59.545Z,66.45
2018-08-20T03:43:03.781Z,65.90
2018-08-20T03:44:07.979Z,66.28
2018-08-20T03:45:12.245Z,65.81
2018-08-20T03:46:16.395Z,66.23
2018-08-20T03:47:20.939Z,66.27
2018-08-20T03:48:25.218Z,65.88
2018-08-20T03:49:29.903Z,65.88
2018-08-20T03:50:34.115Z,65.91
2018-08-20T03:51:38.318Z,66.03
2018-08-20T03:52:42.710Z,66.77
2018-08-20T03:53:47.018Z,66.20
2018-08-20T03:54:51.201Z,66.70
2018-08-20T03:55:55.393Z,66.17
2018-08-20T03:56:59.567Z,66.28
2018-08-20T03:58:03.788Z,66.68
2018-08-20T03:59:08.369Z,66.42
2018-08-20T04:00:12.885Z,66.41
2018-08-20T04:01:17.077Z,66.11
2018-08-20T04:02:21.303Z,66.37
2018-08-20T04:03:25.581Z,66.21
2018-08-20T04:04:30.415Z,66.51
2018-08-20T04:05:34.778Z,67.06
2018-08-20T04:06:38.984Z,66.71
2018-08-20T04:07:43.231Z,66.22
2018-08-20T04:08:47.435Z,66.84
2018-08-20T04:09:51.806Z,66.57
2018-08-20T04:10:55.995Z,66.72
2018-08-20T04:12:01.035Z,66.89
2018-08-20T04:13:05.271Z,66.68
2018-08-20T04:14:09.436Z,66.25
2018-08-20T04:15:13.640Z,66.59
2018-08-20T04:16:17.841Z,66.74
2018-08-20T04:17:22.012Z,66.06
2018-08-20T04:18:26.198Z,65.96
2018-08-20T04:19:30.684Z,66.37
2018-08-20T04:20:34.898Z,66.23
2018-08-20T04:21:39.047Z,66.32
2018-08-20T04:22:43.242Z,66.59
2018-08-20T04:23:47.570Z,66.79
2018-08-20T04:24:51.742Z,66.83
2018-08-20T04:25:56.003Z,66.59
2018-08-20T04:27:00.225Z,66.33
2018-08-20T04:28:04.515Z,66.12
2018-08-20T04:29:08.898Z,66.77
2018-08-20T04:30:13.060Z,66.32
2018-08-20T04:31:17.236Z,66.36
2018-08-20T04:32:21.394Z,66.46
2018-08-20T04:33:25.551Z,66.12
2018-08-20T04:34:30.026Z,66.18
2018-08-20T04:35:34.215Z,66.73
2018-08-20T04:36:38.423Z,66.76
2018-08-20T04:37:42.576Z,66.87
2018-08-20T04:38:46.727Z,66.87
2018-08-20T04:39:50.879Z,66.16
2018-08-20T04:40:55.096Z,66.34
2018-08-20T04:41:59.276Z,66.31
2018-08-20T04:43:03.435Z,66.81
2018-08-20T04:44:08.216Z,66.56
2018-08-20T04:45:12.486Z,66.84
2018-08-20T04:46:16.664Z,67.32
2018-08-20T04:47:20.827Z,67.03
2018-08-20T04:48:24.971Z,67.42
2018-08-20T04:49:29.178Z,66.99
2018-08-20T04:50:33.762Z,67.67
2018-08-20T04:51:38.010Z,67.88
2018-08-20T04:52:42.218Z,67.29
2018-08-20T04:53:46.375Z,67.60
2018-08-20T04:54:50.613Z,67.36
2018-08-20T04:55:54.843Z,67.80
2018-08-20T04:56:59.433Z,67.56
2018-08-20T04:58:03.662Z,67.38
2018-08-20T04:59:07.843Z,67.52
2018-08-20T05:00:12.417Z,68.20
2018-08-20T05:01:16.648Z,67.93
2018-08-20T05:02:20.830Z,67.71
2018-08-20T05:03:25.023Z,68.22
2018-08-20T05:04:29.407Z,67.83
2018-08-20T05:05:33.643Z,68.04
2018-08-20T05:06:37.879Z,68.04
2018-08-20T05:07:42.019Z,67.82
2018-08-20T05:08:46.203Z,67.97
2018-08-20T05:09:50.395Z,67.67
2018-08-20T05:10:54.548Z,67.46
2018-08-20T05:11:58.727Z,67.16
2018-08-20T05:13:02.884Z,67.84
2018-08-20T05:14:07.434Z,67.29
2018-08-20T05:15:11.590Z,67.68
2018-08-20T05:16:15.777Z,67.28
2018-08-20T05:17:19.947Z,67.51
2018-08-20T05:18:24.176Z,67.44
2018-08-20T05:19:28.748Z,67.62
2018-08-20T05:20:32.914Z,67.56
2018-08-20T05:21:37.279Z,66.97
2018-08-20T05:22:41.483Z,67.25
2018-08-20T05:23:46.496Z,66.76
2018-08-20T05:24:50.666Z,66.92
2018-08-20T05:25:54.918Z,67.26
2018-08-20T05:26:59.076Z,66.85
2018-08-20T05:28:03.323Z,66.80
2018-08-20T05:29:07.696Z,67.53
2018-08-20T05:30:11.943Z,67.41
2018-08-20T05:31:16.091Z,67.53
2018-08-20T05:32:20.312Z,67.27
2018-08-20T05:33:24.483Z,67.02
2018-08-20T05:34:28.662Z,67.44
2018-08-20T05:35:32.871Z,67.40
2018-08-20T05:36:43.643Z,67.42
2018-08-20T05:37:47.831Z,67.49
2018-08-20T05:38:52.035Z,67.10
2018-08-20T05:39:56.240Z,66.99
2018-08-20T05:41:00.651Z,67.41
2018-08-20T05:42:05.097Z,67.08
2018-08-20T05:43:09.395Z,66.91
2018-08-20T05:44:13.552Z,67.20
2018-08-20T05:45:17.779Z,67.22
2018-08-20T05:46:21.963Z,67.66
2018-08-20T05:47:26.190Z,67.65
2018-08-20T05:48:30.404Z,67.33
2018-08-20T05:49:34.600Z,67.13
2018-08-20T05:50:38.781Z,67.35
2018-08-20T05:51:42.983Z,67.17
2018-08-20T05:52:47.168Z,67.35
2018-08-20T05:53:51.329Z,67.15
2018-08-20T05:54:55.499Z,67.26
2018-08-20T05:55:59.726Z,67.90
2018-08-20T05:57:04.010Z,68.01
2018-08-20T05:58:08.258Z,67.56
2018-08-20T05:59:12.521Z,67.95
2018-08-20T06:00:17.684Z,67.51
2018-08-20T06:01:21.877Z,67.97
2018-08-20T06:02:26.393Z,67.86
2018-08-20T06:03:30.596Z,68.00
2018-08-20T06:04:34.763Z,67.76
2018-08-20T06:05:38.986Z,67.88
2018-08-20T06:06:43.187Z,67.94
2018-08-20T06:07:47.416Z,67.40
2018-08-20T06:08:51.706Z,68.05
2018-08-20T06:09:55.929Z,67.42
2018-08-20T06:11:00.104Z,68.02
2018-08-20T06:12:04.340Z,67.54
2018-08-20T06:13:08.560Z,68.09
2018-08-20T06:14:12.731Z,67.36
2018-08-20T06:15:16.950Z,67.93
2018-08-20T06:16:21.160Z,67.43
2018-08-20T06:17:25.348Z,67.84
2018-08-20T06:18:30.571Z,68.12
2018-08-20T06:19:35.043Z,67.64
2018-08-20T06:20:39.265Z,68.18
2018-08-20T06:21:43.428Z,67.47
2018-08-20T06:22:47.612Z,67.40
2018-08-20T06:23:51.830Z,67.38
2018-08-20T06:24:56.579Z,67.33
2018-08-20T06:26:00.757Z,67.48
2018-08-20T06:27:05.390Z,67.97
2018-08-20T06:28:09.575Z,67.88
2018-08-20T06:29:13.780Z,68.01
2018-08-20T06:30:18.964Z,68.09
2018-08-20T06:31:23.120Z,67.63
2018-08-20T06:32:27.268Z,67.79
2018-08-20T06:33:31.719Z,67.38
2018-08-20T06:34:35.929Z,67.93
2018-08-20T06:35:40.112Z,67.93
2018-08-20T06:36:44.494Z,67.72
2018-08-20T06:37:48.676Z,68.00
2018-08-20T06:38:52.878Z,68.00
2018-08-20T06:39:57.083Z,68.10
2018-08-20T06:41:01.479Z,67.82
2018-08-20T06:42:05.920Z,67.88
2018-08-20T06:43:10.119Z,68.03
2018-08-20T06:44:14.289Z,68.03
2018-08-20T06:45:18.519Z,68.09
2018-08-20T06:46:23.024Z,67.46
2018-08-20T06:47:27.207Z,67.39
2018-08-20T06:48:31.514Z,68.02
2018-08-20T06:49:36.026Z,68.08
2018-08-20T06:50:40.224Z,68.06
2018-08-20T06:51:44.646Z,67.75
2018-08-20T06:52:48.780Z,68.28
2018-08-20T06:53:52.940Z,68.01
2018-08-20T06:54:57.154Z,68.11
2018-08-20T06:56:01.338Z,68.33
2018-08-20T06:57:05.566Z,67.66
2018-08-20T06:58:09.769Z,68.24
2018-08-20T06:59:13.954Z,68.11
2018-08-20T07:00:18.488Z,68.30
2018-08-20T07:01:22.646Z,68.25
2018-08-20T07:02:26.856Z,68.35
2018-08-20T07:03:31.025Z,68.32
2018-08-20T07:04:35.410Z,67.71
2018-08-20T07:05:39.616Z,67.62
2018-08-20T07:06:43.834Z,67.83
2018-08-20T07:07:47.992Z,67.50
2018-08-20T07:08:52.335Z,67.95
2018-08-20T07:09:56.523Z,67.86
2018-08-20T07:11:00.745Z,67.47
2018-08-20T07:12:05.051Z,67.44
2018-08-20T07:13:31.683Z,67.42
2018-08-20T07:14:36.275Z,67.51
2018-08-20T07:15:40.458Z,68.29
2018-08-20T07:16:44.694Z,67.63
2018-08-20T07:17:48.943Z,68.06
2018-08-20T07:18:53.794Z,68.06
2018-08-20T07:19:58.249Z,67.48
2018-08-20T07:21:02.656Z,68.00
2018-08-20T07:22:07.050Z,68.05
2018-08-20T07:23:11.232Z,67.58
2018-08-20T07:24:15.450Z,68.31
2018-08-20T07:25:19.658Z,67.71
2018-08-20T07:26:23.858Z,67.89
2018-08-20T07:27:28.099Z,67.93
2018-08-20T07:28:32.347Z,67.75
2018-08-20T07:29:42.163Z,68.26
2018-08-20T07:30:46.608Z,68.58
2018-08-20T07:31:50.788Z,67.96
2018-08-20T07:32:55.114Z,68.91
2018-08-20T07:33:59.329Z,68.24
2018-08-20T07:35:03.581Z,68.56
2018-08-20T07:36:07.843Z,68.49
2018-08-20T07:37:13.320Z,68.74
2018-08-20T07:38:17.542Z,68.70
2018-08-20T07:39:21.888Z,68.65
2018-08-20T07:40:26.359Z,69.44
2018-08-20T07:41:31.546Z,68.99
2018-08-20T07:42:35.871Z,68.83
2018-08-20T07:43:40.159Z,69.09
2018-08-20T07:44:45.229Z,69.66
2018-08-20T07:45:49.477Z,69.23
2018-08-20T07:46:53.928Z,69.77
2018-08-20T07:47:58.338Z,69.48
2018-08-20T07:49:07.103Z,70.08
2018-08-20T07:50:11.642Z,71.02
2018-08-20T07:51:16.168Z,71.30
2018-08-20T07:52:20.448Z,71.22
2018-08-20T07:53:24.886Z,72.11
2018-08-20T07:54:29.066Z,72.46
2018-08-20T07:55:33.421Z,72.11
2018-08-20T07:56:37.620Z,72.94
2018-08-20T07:57:42.013Z,73.23
2018-08-20T07:58:46.182Z,73.54
2018-08-20T07:59:50.363Z,73.19
2018-08-20T08:00:54.628Z,73.48
2018-08-20T08:01:58.955Z,74.00
2018-08-20T08:03:03.212Z,74.22
2018-08-20T08:04:07.460Z,74.17
2018-08-20T08:05:12.349Z,73.54
2018-08-20T08:06:16.596Z,73.74
2018-08-20T08:07:21.466Z,73.64
2018-08-20T08:08:25.691Z,74.63
2018-08-20T08:09:29.898Z,73.80
2018-08-20T08:10:34.096Z,73.88
2018-08-20T08:11:38.344Z,74.33
2018-08-20T08:12:42.934Z,74.12
2018-08-20T08:13:47.132Z,74.48
2018-08-20T08:14:51.342Z,74.02
2018-08-20T08:15:55.582Z,74.29
2018-08-20T08:16:59.843Z,74.58
2018-08-20T08:18:04.083Z,74.75
2018-08-20T08:19:08.373Z,74.63
2018-08-20T08:20:13.979Z,74.18
2018-08-20T08:21:18.145Z,74.09
2018-08-20T08:22:22.394Z,74.68
2018-08-20T08:23:26.556Z,74.15
2018-08-20T08:24:30.756Z,74.04
2018-08-20T08:25:35.023Z,74.30
2018-08-20T08:26:45.599Z,74.61
2018-08-20T08:27:49.852Z,74.18
2018-08-20T08:28:54.304Z,74.62
2018-08-20T08:29:58.509Z,74.55
2018-08-20T08:31:02.783Z,74.02
2018-08-20T08:32:07.063Z,74.30
2018-08-20T08:33:11.391Z,74.60
2018-08-20T08:34:15.663Z,74.03
2018-08-20T08:35:19.899Z,74.73
2018-08-20T08:36:24.154Z,73.98
2018-08-20T08:37:28.355Z,74.70
2018-08-20T08:38:32.588Z,74.67
2018-08-20T08:39:36.815Z,74.61
2018-08-20T08:40:41.008Z,74.21
2018-08-20T08:41:45.203Z,73.89
2018-08-20T08:42:49.461Z,74.20
2018-08-20T08:43:53.692Z,73.67
2018-08-20T08:44:57.901Z,74.46
2018-08-20T08:46:02.144Z,73.85
2018-08-20T08:47:06.619Z,74.14
2018-08-20T08:48:11.163Z,73.75
2018-08-20T08:49:15.428Z,74.23
2018-08-20T08:50:19.743Z,73.97
2018-08-20T08:51:23.962Z,74.12
2018-08-20T08:52:28.290Z,73.60
2018-08-20T08:53:32.560Z,73.78
2018-08-20T08:54:36.765Z,73.80
2018-08-20T08:55:40.961Z,73.73
2018-08-20T08:56:45.179Z,73.27
2018-08-20T08:57:49.363Z,73.28
2018-08-20T08:58:53.611Z,73.86
2018-08-20T08:59:57.868Z,73.72
2018-08-20T09:01:02.153Z,73.60
2018-08-20T09:02:06.406Z,73.05
2018-08-20T09:03:10.601Z,73.47
2018-08-20T09:04:14.820Z,73.59
2018-08-20T09:05:18.995Z,73.91
2018-08-20T09:06:23.238Z,73.13
2018-08-20T09:07:27.579Z,73.13
2018-08-20T09:08:31.898Z,73.09
2018-08-20T09:09:36.137Z,73.05
2018-08-20T09:10:40.548Z,73.00
2018-08-20T09:11:44.803Z,72.94
2018-08-20T09:12:49.073Z,73.35
2018-08-20T09:13:53.289Z,72.96
2018-08-20T09:14:57.480Z,72.93
2018-08-20T09:16:01.794Z,73.58
2018-08-20T09:17:05.981Z,72.90
2018-08-20T09:18:10.301Z,73.74
2018-08-20T09:19:14.468Z,73.25
2018-08-20T09:20:18.915Z,73.19
2018-08-20T09:21:23.152Z,73.44
2018-08-20T09:22:27.335Z,73.40
2018-08-20T09:23:31.734Z,73.69
2018-08-20T09:24:36.123Z,73.96
2018-08-20T09:25:40.353Z,73.77
2018-08-20T09:26:44.538Z,73.82
2018-08-20T09:27:48.725Z,73.33
2018-08-20T09:28:52.914Z,74.16
2018-08-20T09:29:57.130Z,74.21
2018-08-20T09:31:01.311Z,73.87
2018-08-20T09:32:05.662Z,74.33
2018-08-20T09:33:09.875Z,74.35
2018-08-20T09:34:14.404Z,74.48
2018-08-20T09:35:18.593Z,73.82
2018-08-20T09:36:22.776Z,74.09
2018-08-20T09:37:27.134Z,73.89
2018-08-20T09:38:31.523Z,73.96
2018-08-20T09:39:35.743Z,74.18
2018-08-20T09:40:39.942Z,74.37
2018-08-20T09:41:44.095Z,74.44
2018-08-20T09:42:48.287Z,74.07
2018-08-20T09:43:52.507Z,74.18
2018-08-20T09:44:56.743Z,73.62
2018-08-20T09:46:00.968Z,74.37
2018-08-20T09:47:05.238Z,74.17
2018-08-20T09:48:09.555Z,74.41
2018-08-20T09:49:13.940Z,74.48
2018-08-20T09:50:18.124Z,74.11
2018-08-20T09:51:22.331Z,73.82
2018-08-20T09:52:26.496Z,74.52
2018-08-20T09:53:30.841Z,74.33
2018-08-20T09:54:35.020Z,73.84
2018-08-20T09:55:39.186Z,73.86
2018-08-20T09:56:43.382Z,73.94
2018-08-20T09:57:47.589Z,74.34
2018-08-20T09:58:51.836Z,73.67
2018-08-20T09:59:56.148Z,74.24
2018-08-20T10:01:00.332Z,73.73
2018-08-20T10:02:04.660Z,73.67
2018-08-20T10:03:09.582Z,74.20
2018-08-20T10:04:13.786Z,74.10
2018-08-20T10:05:18.562Z,73.98
2018-08-20T10:06:22.755Z,73.57
2018-08-20T10:07:27.007Z,73.69
2018-08-20T10:08:31.230Z,73.93
2018-08-20T10:09:35.625Z,74.00
2018-08-20T10:10:39.805Z,73.99
2018-08-20T10:11:43.982Z,73.56
2018-08-20T10:12:48.191Z,73.88
2018-08-20T10:13:52.759Z,74.07
2018-08-20T10:14:57.131Z,73.49
2018-08-20T10:16:01.426Z,73.28
2018-08-20T10:17:05.606Z,74.02
2018-08-20T10:18:10.167Z,73.24
2018-08-20T10:19:14.708Z,73.85
2018-08-20T10:20:19.223Z,73.17
2018-08-20T10:21:23.366Z,73.53
2018-08-20T10:22:27.535Z,73.04
2018-08-20T10:23:31.732Z,73.02
2018-08-20T10:24:35.886Z,73.00
2018-08-20T10:25:40.096Z,73.11
2018-08-20T10:26:44.266Z,73.19
2018-08-20T10:27:48.425Z,73.66
2018-08-20T10:28:52.863Z,73.10
2018-08-20T10:29:57.008Z,73.66
2018-08-20T10:31:01.183Z,73.24
2018-08-20T10:32:05.438Z,73.36
2018-08-20T10:33:09.682Z,73.25
2018-08-20T10:34:13.818Z,72.98
2018-08-20T10:35:18.014Z,72.54
2018-08-20T10:36:22.326Z,73.14
2018-08-20T10:37:26.661Z,72.92
2018-08-20T10:38:30.848Z,72.52
2018-08-20T10:39:35.223Z,72.32
2018-08-20T10:40:39.433Z,72.29
2018-08-20T10:41:43.703Z,72.64
2018-08-20T10:42:48.027Z,72.42
2018-08-20T10:43:52.199Z,72.60
2018-08-20T10:45:01.776Z,71.91
2018-08-20T10:46:11.612Z,71.39
2018-08-20T10:47:15.818Z,71.88
2018-08-20T10:48:20.230Z,71.37
2018-08-20T10:49:24.455Z,71.46
2018-08-20T10:50:28.693Z,70.76
2018-08-20T10:51:33.149Z,70.49
2018-08-20T10:52:37.356Z,69.94
2018-08-20T10:53:41.522Z,69.55
2018-08-20T10:54:46.075Z,69.82
2018-08-20T10:55:50.510Z,69.18
2018-08-20T10:56:54.676Z,69.28
2018-08-20T10:57:58.895Z,69.21
2018-08-20T10:59:03.098Z,69.05
2018-08-20T11:00:07.315Z,68.28
2018-08-20T11:01:11.715Z,68.90
2018-08-20T11:02:15.875Z,68.00
2018-08-20T11:03:20.149Z,67.84
2018-08-20T11:04:24.311Z,68.34
2018-08-20T11:05:28.594Z,67.25
2018-08-20T11:06:32.799Z,67.75
2018-08-20T11:07:36.955Z,67.47
2018-08-20T11:08:41.150Z,67.33
2018-08-20T11:09:45.326Z,66.63
2018-08-20T11:10:49.544Z,66.29
2018-08-20T11:11:53.809Z,66.53
2018-08-20T11:12:57.990Z,66.02
2018-08-20T11:14:02.268Z,66.14
2018-08-20T11:15:07.881Z,65.87
2018-08-20T11:16:12.179Z,65.91
2018-08-20T11:17:16.396Z,65.31
2018-08-20T11:18:20.672Z,65.07
2018-08-20T11:19:24.843Z,65.13
2018-08-20T11:20:29.373Z,65.04
2018-08-20T11:21:33.607Z,64.84
2018-08-20T11:22:37.776Z,64.11
2018-08-20T11:23:41.976Z,64.97
2018-08-20T11:24:46.468Z,64.80
2018-08-20T11:25:50.647Z,64.76
2018-08-20T11:26:54.898Z,64.06
2018-08-20T11:27:59.202Z,64.46
2018-08-20T11:29:03.402Z,64.54
2018-08-20T11:30:09.169Z,63.83
2018-08-20T11:31:13.293Z,64.38
2018-08-20T11:32:17.652Z,63.52
2018-08-20T11:33:21.787Z,64.02
2018-08-20T11:34:25.980Z,63.12
2018-08-20T11:35:30.527Z,63.40
2018-08-20T11:36:34.770Z,62.64
2018-08-20T11:37:38.913Z,63.01
2018-08-20T11:38:43.067Z,62.79
2018-08-20T11:39:47.203Z,62.55
2018-08-20T11:40:51.391Z,62.42
2018-08-20T11:41:55.536Z,62.11
2018-08-20T11:42:59.679Z,61.86
2018-08-20T11:44:04.087Z,62.78
2018-08-20T11:45:14.365Z,62.09
2018-08-20T11:46:18.695Z,61.51
2018-08-20T11:47:23.000Z,62.04
2018-08-20T11:48:27.218Z,61.74
2018-08-20T11:49:31.545Z,61.86
2018-08-20T11:50:35.721Z,61.88
2018-08-20T11:51:40.192Z,61.65
2018-08-20T11:52:44.355Z,61.19
2018-08-20T11:53:48.495Z,61.38
2018-08-20T11:54:53.340Z,60.86
2018-08-20T11:55:57.486Z,60.36
2018-08-20T11:57:01.682Z,61.09
2018-08-20T11:58:05.958Z,61.00
2018-08-20T11:59:10.235Z,60.56
2018-08-20T12:00:14.364Z,59.99
2018-08-20T12:01:18.576Z,60.59
2018-08-20T12:02:22.742Z,60.81
2018-08-20T12:03:26.907Z,60.60
2018-08-20T12:04:31.391Z,60.08
2018-08-20T12:05:35.915Z,60.33
2018-08-20T12:06:40.619Z,59.30
2018-08-20T12:07:44.867Z,59.49
2018-08-20T12:08:49.032Z,59.38
2018-08-20T12:09:53.160Z,60.01
2018-08-20T12:10:57.332Z,59.72
2018-08-20T12:12:01.583Z,59.65
2018-08-20T12:13:05.851Z,59.45
2018-08-20T12:14:10.084Z,59.12
2018-08-20T12:15:14.219Z,58.85
2018-08-20T12:16:18.572Z,59.35
2018-08-20T12:17:23.174Z,59.16
2018-08-20T12:18:27.254Z,59.21
2018-08-20T12:19:31.492Z,58.12
2018-08-20T12:20:35.900Z,58.56
2018-08-20T12:21:40.154Z,58.13
2018-08-20T12:22:44.335Z,58.44
2018-08-20T12:23:48.541Z,57.59
2018-08-20T12:24:52.710Z,58.58
2018-08-20T12:25:57.131Z,58.63
2018-08-20T12:27:01.271Z,58.24
2018-08-20T12:28:05.462Z,58.13
2018-08-20T12:29:09.676Z,57.73
2018-08-20T12:30:14.498Z,58.28
2018-08-20T12:31:18.676Z,57.74
2018-08-20T12:32:22.864Z,58.33
2018-08-20T12:33:27.080Z,58.55
2018-08-20T12:34:31.288Z,58.47
2018-08-20T12:35:35.492Z,58.43
2018-08-20T12:36:39.694Z,58.43
2018-08-20T12:37:43.839Z,57.86
2018-08-20T12:38:48.095Z,58.23
2018-08-20T12:39:52.316Z,57.53
2018-08-20T12:40:56.478Z,57.89
2018-08-20T12:42:00.647Z,57.86
2018-08-20T12:43:04.867Z,57.71
2018-08-20T12:44:09.111Z,58.02
2018-08-20T12:45:13.300Z,57.81
2018-08-20T12:46:20.263Z,58.04
2018-08-20T12:47:24.513Z,57.84
2018-08-20T12:48:28.690Z,57.61
2018-08-20T12:49:33.140Z,58.24
2018-08-20T12:50:37.338Z,57.79
2018-08-20T12:51:41.702Z,58.15
2018-08-20T12:52:45.910Z,58.42
2018-08-20T12:53:50.266Z,58.04
2018-08-20T12:54:54.450Z,58.29
2018-08-20T12:55:58.648Z,58.57
2018-08-20T12:57:02.960Z,58.49
2018-08-20T12:58:07.177Z,58.52
2018-08-20T12:59:11.385Z,58.29
2018-08-20T13:00:15.568Z,58.41
2018-08-20T13:01:19.987Z,58.22
2018-08-20T13:02:24.183Z,58.43
2018-08-20T13:03:28.366Z,58.98
2018-08-20T13:04:32.576Z,59.02
2018-08-20T13:05:36.768Z,59.36
2018-08-20T13:06:40.971Z,58.89
2018-08-20T13:07:45.156Z,59.45
2018-08-20T13:08:49.416Z,59.43
2018-08-20T13:09:53.936Z,59.35
2018-08-20T13:10:58.103Z,59.33
2018-08-20T13:12:02.383Z,59.17
2018-08-20T13:13:06.787Z,60.11
2018-08-20T13:14:10.959Z,60.22
2018-08-20T13:15:15.123Z,61.13
2018-08-20T13:16:19.557Z,61.01
2018-08-20T13:17:23.671Z,61.79
2018-08-20T13:18:28.045Z,62.28
2018-08-20T13:19:32.231Z,62.70
2018-08-20T13:20:36.715Z,63.59
2018-08-20T13:21:40.920Z,63.99
2018-08-20T13:22:45.271Z,64.10
2018-08-20T13:23:49.536Z,64.90
2018-08-20T13:24:53.736Z,65.37
2018-08-20T13:25:57.898Z,66.04
2018-08-20T13:27:02.130Z,66.39
2018-08-20T13:28:06.516Z,65.68
2018-08-20T13:29:10.764Z,65.87
2018-08-20T13:30:14.934Z,65.96
2018-08-20T13:31:19.145Z,66.34
2018-08-20T13:32:23.333Z,66.60
2018-08-20T13:33:27.535Z,66.68
2018-08-20T13:34:31.794Z,67.36
2018-08-20T13:35:35.996Z,67.23
2018-08-20T13:36:40.200Z,67.25
2018-08-20T13:37:44.389Z,66.68
2018-08-20T13:38:48.717Z,66.84
2018-08-20T13:39:52.880Z,66.44
2018-08-20T13:40:57.683Z,66.31
2018-08-20T13:42:01.948Z,66.48
2018-08-20T13:43:06.369Z,66.42
2018-08-20T13:44:10.600Z,65.82
2018-08-20T13:45:14.788Z,66.41
2018-08-20T13:46:18.980Z,66.20
2018-08-20T13:47:23.166Z,65.90
2018-08-20T13:48:27.382Z,65.95
2018-08-20T13:49:31.656Z,65.13